sensor_id;sensor_type;location;lat;lon;timestamp;P1;durP1;ratioP1;P2;durP2;ratioP2
17947;SDS011;9099;47.958;11.366;2024-01-15T00:01:08;3.30;;;2.20;;
17947;SDS011;9099;47.958;11.366;2024-01-15T00:03:35;2.50;;;2.30;;
17947;SDS011;9099;47.958;11.366;2024-01-15T00:06:02;2.17;;;1.97;;
17947;SDS011;9099;47.958;11.366;2024-01-15T00:08:29;2.50;;;2.10;;
17947;SDS011;9099;47.958;11.366;2024-01-15T00:10:56;2.40;;;2.20;;
17947;SDS011;9099;47.958;11.366;2024-01-15T00:13:23;2.53;;;2.33;;
17947;SDS011;9099;47.958;11.366;2024-01-15T00:15:51;2.47;;;2.00;;
17947;SDS011;9099;47.958;11.366;2024-01-15T00:18:18;1.95;;;1.85;;
17947;SDS011;9099;47.958;11.366;2024-01-15T00:20:44;2.33;;;2.13;;
17947;SDS011;9099;47.958;11.366;2024-01-15T00:23:11;2.53;;;1.90;;
17947;SDS011;9099;47.958;11.366;2024-01-15T00:25:38;1.87;;;1.60;;
17947;SDS011;9099;47.958;11.366;2024-01-15T00:28:07;1.63;;;1.53;;
17947;SDS011;9099;47.958;11.366;2024-01-15T00:30:33;2.10;;;1.90;;
17947;SDS011;9099;47.958;11.366;2024-01-15T00:33:02;2.23;;;2.03;;
17947;SDS011;9099;47.958;11.366;2024-01-15T00:35:29;2.40;;;2.20;;
17947;SDS011;9099;47.958;11.366;2024-01-15T00:37:56;2.13;;;1.93;;
17947;SDS011;9099;47.958;11.366;2024-01-15T00:40:23;2.20;;;2.00;;
17947;SDS011;9099;47.958;11.366;2024-01-15T00:42:50;2.17;;;1.97;;
17947;SDS011;9099;47.958;11.366;2024-01-15T00:45:17;2.30;;;1.90;;
17947;SDS011;9099;47.958;11.366;2024-01-15T00:47:44;2.90;;;2.10;;
17947;SDS011;9099;47.958;11.366;2024-01-15T00:50:12;2.40;;;2.20;;
17947;SDS011;9099;47.958;11.366;2024-01-15T00:52:39;2.67;;;2.30;;
17947;SDS011;9099;47.958;11.366;2024-01-15T00:55:07;3.43;;;2.50;;
17947;SDS011;9099;47.958;11.366;2024-01-15T00:57:33;2.50;;;2.10;;
17947;SDS011;9099;47.958;11.366;2024-01-15T01:00:00;2.40;;;2.20;;
17947;SDS011;9099;47.958;11.366;2024-01-15T01:02:27;2.50;;;2.30;;
17947;SDS011;9099;47.958;11.366;2024-01-15T01:04:54;3.20;;;2.63;;
17947;SDS011;9099;47.958;11.366;2024-01-15T01:07:22;2.60;;;2.40;;
17947;SDS011;9099;47.958;11.366;2024-01-15T01:09:49;2.53;;;2.33;;
17947;SDS011;9099;47.958;11.366;2024-01-15T01:12:16;3.10;;;2.63;;
17947;SDS011;9099;47.958;11.366;2024-01-15T01:14:43;3.13;;;2.50;;
17947;SDS011;9099;47.958;11.366;2024-01-15T01:17:10;3.87;;;2.90;;
17947;SDS011;9099;47.958;11.366;2024-01-15T01:19:37;3.97;;;2.60;;
17947;SDS011;9099;47.958;11.366;2024-01-15T01:22:03;4.33;;;2.83;;
17947;SDS011;9099;47.958;11.366;2024-01-15T01:24:32;5.40;;;3.53;;
17947;SDS011;9099;47.958;11.366;2024-01-15T01:26:59;5.37;;;3.33;;
17947;SDS011;9099;47.958;11.366;2024-01-15T01:29:26;3.87;;;3.00;;
17947;SDS011;9099;47.958;11.366;2024-01-15T01:31:53;5.97;;;3.93;;
17947;SDS011;9099;47.958;11.366;2024-01-15T01:34:19;7.53;;;4.70;;
17947;SDS011;9099;47.958;11.366;2024-01-15T01:36:46;5.47;;;3.93;;
17947;SDS011;9099;47.958;11.366;2024-01-15T01:39:13;7.97;;;5.00;;
17947;SDS011;9099;47.958;11.366;2024-01-15T01:41:41;10.40;;;6.03;;
17947;SDS011;9099;47.958;11.366;2024-01-15T01:44:08;12.13;;;5.93;;
17947;SDS011;9099;47.958;11.366;2024-01-15T01:46:35;8.57;;;5.67;;
17947;SDS011;9099;47.958;11.366;2024-01-15T01:49:05;10.80;;;7.47;;
17947;SDS011;9099;47.958;11.366;2024-01-15T01:51:33;15.27;;;7.90;;
17947;SDS011;9099;47.958;11.366;2024-01-15T01:54:01;11.43;;;6.40;;
17947;SDS011;9099;47.958;11.366;2024-01-15T01:56:28;10.93;;;6.60;;
17947;SDS011;9099;47.958;11.366;2024-01-15T01:58:56;12.07;;;7.63;;
17947;SDS011;9099;47.958;11.366;2024-01-15T02:01:23;9.80;;;6.30;;
17947;SDS011;9099;47.958;11.366;2024-01-15T02:03:50;7.77;;;5.90;;
17947;SDS011;9099;47.958;11.366;2024-01-15T02:06:17;11.60;;;7.20;;
17947;SDS011;9099;47.958;11.366;2024-01-15T02:08:45;8.33;;;6.63;;
17947;SDS011;9099;47.958;11.366;2024-01-15T02:11:11;11.70;;;7.23;;
17947;SDS011;9099;47.958;11.366;2024-01-15T02:13:38;8.07;;;6.30;;
17947;SDS011;9099;47.958;11.366;2024-01-15T02:16:07;9.40;;;6.67;;
17947;SDS011;9099;47.958;11.366;2024-01-15T02:18:39;15.20;;;8.60;;
17947;SDS011;9099;47.958;11.366;2024-01-15T02:21:06;11.10;;;6.87;;
17947;SDS011;9099;47.958;11.366;2024-01-15T02:23:35;11.47;;;7.30;;
17947;SDS011;9099;47.958;11.366;2024-01-15T02:26:02;12.23;;;7.77;;
17947;SDS011;9099;47.958;11.366;2024-01-15T02:28:29;18.40;;;9.60;;
17947;SDS011;9099;47.958;11.366;2024-01-15T02:30:56;31.17;;;14.57;;
17947;SDS011;9099;47.958;11.366;2024-01-15T02:33:23;12.67;;;9.23;;
17947;SDS011;9099;47.958;11.366;2024-01-15T02:35:49;11.57;;;7.30;;
17947;SDS011;9099;47.958;11.366;2024-01-15T02:38:16;10.07;;;6.73;;
17947;SDS011;9099;47.958;11.366;2024-01-15T02:40:45;10.23;;;6.83;;
17947;SDS011;9099;47.958;11.366;2024-01-15T02:43:12;9.73;;;6.10;;
17947;SDS011;9099;47.958;11.366;2024-01-15T02:45:39;10.87;;;6.53;;
17947;SDS011;9099;47.958;11.366;2024-01-15T02:48:06;8.73;;;6.43;;
17947;SDS011;9099;47.958;11.366;2024-01-15T02:50:33;9.07;;;6.67;;
17947;SDS011;9099;47.958;11.366;2024-01-15T02:53:00;10.63;;;6.70;;
17947;SDS011;9099;47.958;11.366;2024-01-15T02:55:26;7.83;;;5.37;;
17947;SDS011;9099;47.958;11.366;2024-01-15T02:57:55;6.40;;;5.17;;
17947;SDS011;9099;47.958;11.366;2024-01-15T03:00:22;6.47;;;5.03;;
17947;SDS011;9099;47.958;11.366;2024-01-15T03:02:50;5.53;;;4.43;;
17947;SDS011;9099;47.958;11.366;2024-01-15T03:05:17;7.07;;;5.20;;
17947;SDS011;9099;47.958;11.366;2024-01-15T03:07:45;6.43;;;4.83;;
17947;SDS011;9099;47.958;11.366;2024-01-15T03:10:12;5.50;;;4.70;;
17947;SDS011;9099;47.958;11.366;2024-01-15T03:12:38;6.57;;;5.03;;
17947;SDS011;9099;47.958;11.366;2024-01-15T03:15:07;14.07;;;8.47;;
17947;SDS011;9099;47.958;11.366;2024-01-15T03:17:34;7.43;;;4.93;;
17947;SDS011;9099;47.958;11.366;2024-01-15T03:20:01;6.70;;;4.97;;
17947;SDS011;9099;47.958;11.366;2024-01-15T03:22:28;5.80;;;4.50;;
17947;SDS011;9099;47.958;11.366;2024-01-15T03:24:55;6.60;;;4.80;;
17947;SDS011;9099;47.958;11.366;2024-01-15T03:27:22;6.37;;;4.60;;
17947;SDS011;9099;47.958;11.366;2024-01-15T03:29:48;6.07;;;4.70;;
17947;SDS011;9099;47.958;11.366;2024-01-15T03:32:17;5.13;;;4.20;;
17947;SDS011;9099;47.958;11.366;2024-01-15T03:34:44;5.20;;;3.70;;
17947;SDS011;9099;47.958;11.366;2024-01-15T03:37:12;4.23;;;3.63;;
17947;SDS011;9099;47.958;11.366;2024-01-15T03:39:39;5.13;;;3.83;;
17947;SDS011;9099;47.958;11.366;2024-01-15T03:42:06;4.43;;;3.70;;
17947;SDS011;9099;47.958;11.366;2024-01-15T03:44:33;4.77;;;3.47;;
17947;SDS011;9099;47.958;11.366;2024-01-15T03:47:00;5.43;;;3.60;;
17947;SDS011;9099;47.958;11.366;2024-01-15T03:49:28;5.80;;;3.43;;
17947;SDS011;9099;47.958;11.366;2024-01-15T03:51:55;5.23;;;4.00;;
17947;SDS011;9099;47.958;11.366;2024-01-15T03:54:22;3.80;;;3.50;;
17947;SDS011;9099;47.958;11.366;2024-01-15T03:56:49;4.43;;;3.50;;
17947;SDS011;9099;47.958;11.366;2024-01-15T03:59:16;4.47;;;3.23;;
17947;SDS011;9099;47.958;11.366;2024-01-15T04:01:47;5.07;;;3.57;;
17947;SDS011;9099;47.958;11.366;2024-01-15T04:04:15;4.43;;;3.40;;
17947;SDS011;9099;47.958;11.366;2024-01-15T04:06:43;4.33;;;3.43;;
17947;SDS011;9099;47.958;11.366;2024-01-15T04:09:11;5.00;;;3.63;;
17947;SDS011;9099;47.958;11.366;2024-01-15T04:11:38;5.20;;;3.70;;
17947;SDS011;9099;47.958;11.366;2024-01-15T04:14:05;4.43;;;3.43;;
17947;SDS011;9099;47.958;11.366;2024-01-15T04:16:32;3.67;;;3.23;;
17947;SDS011;9099;47.958;11.366;2024-01-15T04:18:59;4.53;;;3.47;;
17947;SDS011;9099;47.958;11.366;2024-01-15T04:21:26;5.00;;;3.33;;
17947;SDS011;9099;47.958;11.366;2024-01-15T04:23:54;5.93;;;3.30;;
17947;SDS011;9099;47.958;11.366;2024-01-15T04:26:21;4.53;;;3.47;;
17947;SDS011;9099;47.958;11.366;2024-01-15T04:28:47;4.73;;;3.23;;
17947;SDS011;9099;47.958;11.366;2024-01-15T04:31:20;4.63;;;3.13;;
17947;SDS011;9099;47.958;11.366;2024-01-15T04:33:47;4.63;;;3.33;;
17947;SDS011;9099;47.958;11.366;2024-01-15T04:36:14;3.87;;;3.20;;
17947;SDS011;9099;47.958;11.366;2024-01-15T04:38:41;3.47;;;2.97;;
17947;SDS011;9099;47.958;11.366;2024-01-15T04:41:10;4.33;;;2.90;;
17947;SDS011;9099;47.958;11.366;2024-01-15T04:43:38;3.63;;;3.23;;
17947;SDS011;9099;47.958;11.366;2024-01-15T04:46:05;3.87;;;3.10;;
17947;SDS011;9099;47.958;11.366;2024-01-15T04:48:32;4.63;;;3.30;;
17947;SDS011;9099;47.958;11.366;2024-01-15T04:50:59;3.50;;;3.20;;
17947;SDS011;9099;47.958;11.366;2024-01-15T04:53:26;3.80;;;3.27;;
17947;SDS011;9099;47.958;11.366;2024-01-15T04:55:52;4.90;;;3.20;;
17947;SDS011;9099;47.958;11.366;2024-01-15T04:58:21;3.87;;;2.90;;
17947;SDS011;9099;47.958;11.366;2024-01-15T05:00:50;4.80;;;3.00;;
17947;SDS011;9099;47.958;11.366;2024-01-15T05:03:17;3.67;;;3.13;;
17947;SDS011;9099;47.958;11.366;2024-01-15T05:05:44;3.27;;;2.83;;
17947;SDS011;9099;47.958;11.366;2024-01-15T05:08:10;3.50;;;2.67;;
17947;SDS011;9099;47.958;11.366;2024-01-15T05:10:37;3.47;;;3.10;;
17947;SDS011;9099;47.958;11.366;2024-01-15T05:13:04;3.90;;;3.43;;
17947;SDS011;9099;47.958;11.366;2024-01-15T05:15:32;4.07;;;2.87;;
17947;SDS011;9099;47.958;11.366;2024-01-15T05:17:59;4.30;;;3.27;;
17947;SDS011;9099;47.958;11.366;2024-01-15T05:20:26;3.80;;;3.03;;
17947;SDS011;9099;47.958;11.366;2024-01-15T05:22:53;4.40;;;3.33;;
17947;SDS011;9099;47.958;11.366;2024-01-15T05:25:20;4.70;;;3.43;;
17947;SDS011;9099;47.958;11.366;2024-01-15T05:27:47;3.70;;;3.10;;
17947;SDS011;9099;47.958;11.366;2024-01-15T05:30:14;4.03;;;2.97;;
17947;SDS011;9099;47.958;11.366;2024-01-15T05:32:43;3.37;;;2.80;;
17947;SDS011;9099;47.958;11.366;2024-01-15T05:35:09;3.00;;;2.67;;
17947;SDS011;9099;47.958;11.366;2024-01-15T05:37:36;4.40;;;3.00;;
17947;SDS011;9099;47.958;11.366;2024-01-15T05:40:05;3.70;;;2.93;;
17947;SDS011;9099;47.958;11.366;2024-01-15T05:42:32;4.27;;;3.30;;
17947;SDS011;9099;47.958;11.366;2024-01-15T05:44:59;3.40;;;2.80;;
17947;SDS011;9099;47.958;11.366;2024-01-15T05:47:28;4.97;;;3.17;;
17947;SDS011;9099;47.958;11.366;2024-01-15T05:49:56;4.73;;;3.20;;
17947;SDS011;9099;47.958;11.366;2024-01-15T05:52:23;3.60;;;3.13;;
17947;SDS011;9099;47.958;11.366;2024-01-15T05:54:50;4.37;;;3.10;;
17947;SDS011;9099;47.958;11.366;2024-01-15T05:57:17;4.10;;;3.40;;
17947;SDS011;9099;47.958;11.366;2024-01-15T05:59:44;4.87;;;3.20;;
17947;SDS011;9099;47.958;11.366;2024-01-15T06:02:11;4.90;;;3.20;;
17947;SDS011;9099;47.958;11.366;2024-01-15T06:04:38;3.93;;;3.30;;
17947;SDS011;9099;47.958;11.366;2024-01-15T06:07:06;4.40;;;3.37;;
17947;SDS011;9099;47.958;11.366;2024-01-15T06:09:33;3.90;;;3.50;;
17947;SDS011;9099;47.958;11.366;2024-01-15T06:12:00;4.37;;;3.70;;
17947;SDS011;9099;47.958;11.366;2024-01-15T06:14:26;4.93;;;3.70;;
17947;SDS011;9099;47.958;11.366;2024-01-15T06:16:54;4.50;;;3.50;;
17947;SDS011;9099;47.958;11.366;2024-01-15T06:19:20;4.57;;;3.37;;
17947;SDS011;9099;47.958;11.366;2024-01-15T06:21:47;4.43;;;3.43;;
17947;SDS011;9099;47.958;11.366;2024-01-15T06:24:15;4.10;;;3.13;;
17947;SDS011;9099;47.958;11.366;2024-01-15T06:26:46;4.87;;;3.27;;
17947;SDS011;9099;47.958;11.366;2024-01-15T06:29:12;5.13;;;3.57;;
17947;SDS011;9099;47.958;11.366;2024-01-15T06:31:39;3.67;;;3.27;;
17947;SDS011;9099;47.958;11.366;2024-01-15T06:34:06;4.57;;;3.20;;
17947;SDS011;9099;47.958;11.366;2024-01-15T06:36:33;4.47;;;3.10;;
17947;SDS011;9099;47.958;11.366;2024-01-15T06:39:00;5.03;;;3.80;;
17947;SDS011;9099;47.958;11.366;2024-01-15T06:41:28;3.63;;;3.10;;
17947;SDS011;9099;47.958;11.366;2024-01-15T06:43:55;3.83;;;3.47;;
17947;SDS011;9099;47.958;11.366;2024-01-15T06:46:22;3.80;;;2.80;;
17947;SDS011;9099;47.958;11.366;2024-01-15T06:48:49;5.53;;;3.20;;
17947;SDS011;9099;47.958;11.366;2024-01-15T06:51:16;3.57;;;3.23;;
17947;SDS011;9099;47.958;11.366;2024-01-15T06:53:42;3.40;;;3.00;;
17947;SDS011;9099;47.958;11.366;2024-01-15T06:56:09;3.50;;;3.20;;
17947;SDS011;9099;47.958;11.366;2024-01-15T06:58:37;3.70;;;3.33;;
17947;SDS011;9099;47.958;11.366;2024-01-15T07:01:04;3.57;;;3.00;;
17947;SDS011;9099;47.958;11.366;2024-01-15T07:03:31;4.20;;;3.20;;
17947;SDS011;9099;47.958;11.366;2024-01-15T07:05:58;3.90;;;3.27;;
17947;SDS011;9099;47.958;11.366;2024-01-15T07:08:25;3.97;;;3.33;;
17947;SDS011;9099;47.958;11.366;2024-01-15T07:10:51;4.93;;;3.63;;
17947;SDS011;9099;47.958;11.366;2024-01-15T07:13:18;4.03;;;2.90;;
17947;SDS011;9099;47.958;11.366;2024-01-15T07:15:46;4.03;;;3.40;;
17947;SDS011;9099;47.958;11.366;2024-01-15T07:18:13;4.57;;;3.37;;
17947;SDS011;9099;47.958;11.366;2024-01-15T07:20:40;3.43;;;3.00;;
17947;SDS011;9099;47.958;11.366;2024-01-15T07:23:07;5.90;;;3.50;;
17947;SDS011;9099;47.958;11.366;2024-01-15T07:25:34;4.17;;;3.50;;
17947;SDS011;9099;47.958;11.366;2024-01-15T07:28:01;4.80;;;3.23;;
17947;SDS011;9099;47.958;11.366;2024-01-15T07:30:28;3.37;;;2.90;;
17947;SDS011;9099;47.958;11.366;2024-01-15T07:32:57;4.03;;;3.53;;
17947;SDS011;9099;47.958;11.366;2024-01-15T07:35:23;3.43;;;2.77;;
17947;SDS011;9099;47.958;11.366;2024-01-15T07:37:50;3.97;;;3.30;;
17947;SDS011;9099;47.958;11.366;2024-01-15T07:40:17;3.33;;;3.03;;
17947;SDS011;9099;47.958;11.366;2024-01-15T07:42:44;4.63;;;3.20;;
17947;SDS011;9099;47.958;11.366;2024-01-15T07:45:11;4.03;;;3.23;;
17947;SDS011;9099;47.958;11.366;2024-01-15T07:47:38;3.57;;;3.00;;
17947;SDS011;9099;47.958;11.366;2024-01-15T07:50:06;5.13;;;3.47;;
17947;SDS011;9099;47.958;11.366;2024-01-15T07:52:33;3.83;;;3.07;;
17947;SDS011;9099;47.958;11.366;2024-01-15T07:55:00;3.70;;;3.03;;
17947;SDS011;9099;47.958;11.366;2024-01-15T07:57:28;3.57;;;2.83;;
17947;SDS011;9099;47.958;11.366;2024-01-15T07:59:55;4.03;;;3.10;;
17947;SDS011;9099;47.958;11.366;2024-01-15T08:02:22;3.40;;;3.10;;
17947;SDS011;9099;47.958;11.366;2024-01-15T08:04:49;3.33;;;3.03;;
17947;SDS011;9099;47.958;11.366;2024-01-15T08:07:17;3.37;;;2.80;;
17947;SDS011;9099;47.958;11.366;2024-01-15T08:09:44;3.57;;;3.17;;
17947;SDS011;9099;47.958;11.366;2024-01-15T08:12:12;3.50;;;3.13;;
17947;SDS011;9099;47.958;11.366;2024-01-15T08:14:39;3.40;;;2.90;;
17947;SDS011;9099;47.958;11.366;2024-01-15T08:17:06;3.40;;;3.10;;
17947;SDS011;9099;47.958;11.366;2024-01-15T08:19:33;4.00;;;3.23;;
17947;SDS011;9099;47.958;11.366;2024-01-15T08:22:00;4.40;;;3.30;;
17947;SDS011;9099;47.958;11.366;2024-01-15T08:24:28;3.47;;;2.80;;
17947;SDS011;9099;47.958;11.366;2024-01-15T08:26:56;3.27;;;2.97;;
17947;SDS011;9099;47.958;11.366;2024-01-15T08:29:23;3.97;;;3.00;;
17947;SDS011;9099;47.958;11.366;2024-01-15T08:31:50;3.17;;;2.77;;
17947;SDS011;9099;47.958;11.366;2024-01-15T08:34:17;5.10;;;3.33;;
17947;SDS011;9099;47.958;11.366;2024-01-15T08:36:44;3.60;;;3.17;;
17947;SDS011;9099;47.958;11.366;2024-01-15T08:39:11;3.60;;;3.30;;
17947;SDS011;9099;47.958;11.366;2024-01-15T08:41:39;3.70;;;3.30;;
17947;SDS011;9099;47.958;11.366;2024-01-15T08:44:06;4.07;;;3.27;;
17947;SDS011;9099;47.958;11.366;2024-01-15T08:46:33;3.67;;;3.23;;
17947;SDS011;9099;47.958;11.366;2024-01-15T08:48:59;4.40;;;3.40;;
17947;SDS011;9099;47.958;11.366;2024-01-15T08:51:28;4.43;;;3.57;;
17947;SDS011;9099;47.958;11.366;2024-01-15T08:53:55;4.07;;;3.40;;
17947;SDS011;9099;47.958;11.366;2024-01-15T08:56:22;5.30;;;3.80;;
17947;SDS011;9099;47.958;11.366;2024-01-15T08:58:51;4.23;;;3.50;;
17947;SDS011;9099;47.958;11.366;2024-01-15T09:01:17;4.00;;;3.10;;
17947;SDS011;9099;47.958;11.366;2024-01-15T09:03:44;4.00;;;3.60;;
17947;SDS011;9099;47.958;11.366;2024-01-15T09:06:13;4.63;;;3.57;;
17947;SDS011;9099;47.958;11.366;2024-01-15T09:08:40;3.90;;;3.50;;
17947;SDS011;9099;47.958;11.366;2024-01-15T09:11:07;4.43;;;3.20;;
17947;SDS011;9099;47.958;11.366;2024-01-15T09:13:33;3.77;;;3.03;;
17947;SDS011;9099;47.958;11.366;2024-01-15T09:16:02;4.20;;;3.13;;
17947;SDS011;9099;47.958;11.366;2024-01-15T09:18:28;3.80;;;3.03;;
17947;SDS011;9099;47.958;11.366;2024-01-15T09:20:55;3.20;;;2.90;;
17947;SDS011;9099;47.958;11.366;2024-01-15T09:23:22;3.67;;;2.87;;
17947;SDS011;9099;47.958;11.366;2024-01-15T09:25:49;3.13;;;2.73;;
17947;SDS011;9099;47.958;11.366;2024-01-15T09:28:17;2.77;;;2.47;;
17947;SDS011;9099;47.958;11.366;2024-01-15T09:30:44;2.60;;;2.40;;
17947;SDS011;9099;47.958;11.366;2024-01-15T09:33:13;2.90;;;2.60;;
17947;SDS011;9099;47.958;11.366;2024-01-15T09:35:40;6.83;;;2.67;;
17947;SDS011;9099;47.958;11.366;2024-01-15T09:38:07;2.53;;;2.33;;
17947;SDS011;9099;47.958;11.366;2024-01-15T09:40:34;3.00;;;2.00;;
17947;SDS011;9099;47.958;11.366;2024-01-15T09:43:06;2.73;;;2.37;;
17947;SDS011;9099;47.958;11.366;2024-01-15T09:45:33;3.93;;;2.23;;
17947;SDS011;9099;47.958;11.366;2024-01-15T09:48:00;3.73;;;2.60;;
17947;SDS011;9099;47.958;11.366;2024-01-15T09:50:28;3.20;;;2.37;;
17947;SDS011;9099;47.958;11.366;2024-01-15T09:52:55;2.40;;;2.20;;
17947;SDS011;9099;47.958;11.366;2024-01-15T09:55:23;3.03;;;2.30;;
17947;SDS011;9099;47.958;11.366;2024-01-15T09:57:51;2.27;;;2.07;;
17947;SDS011;9099;47.958;11.366;2024-01-15T10:00:18;3.63;;;2.40;;
17947;SDS011;9099;47.958;11.366;2024-01-15T10:02:45;2.70;;;2.00;;
17947;SDS011;9099;47.958;11.366;2024-01-15T10:05:12;3.80;;;2.07;;
17947;SDS011;9099;47.958;11.366;2024-01-15T10:07:40;3.03;;;2.40;;
17947;SDS011;9099;47.958;11.366;2024-01-15T10:10:08;2.33;;;1.93;;
17947;SDS011;9099;47.958;11.366;2024-01-15T10:12:37;3.67;;;2.37;;
17947;SDS011;9099;47.958;11.366;2024-01-15T10:15:05;5.20;;;2.60;;
17947;SDS011;9099;47.958;11.366;2024-01-15T10:17:36;2.30;;;2.00;;
17947;SDS011;9099;47.958;11.366;2024-01-15T10:20:06;2.47;;;2.00;;
17947;SDS011;9099;47.958;11.366;2024-01-15T10:22:35;2.30;;;2.10;;
17947;SDS011;9099;47.958;11.366;2024-01-15T10:25:05;2.73;;;2.20;;
17947;SDS011;9099;47.958;11.366;2024-01-15T10:27:32;3.00;;;1.90;;
17947;SDS011;9099;47.958;11.366;2024-01-15T10:29:59;1.63;;;1.53;;
17947;SDS011;9099;47.958;11.366;2024-01-15T10:32:28;4.00;;;2.20;;
17947;SDS011;9099;47.958;11.366;2024-01-15T10:34:54;2.50;;;2.00;;
17947;SDS011;9099;47.958;11.366;2024-01-15T10:37:23;2.30;;;2.07;;
17947;SDS011;9099;47.958;11.366;2024-01-15T10:39:50;3.17;;;2.30;;
17947;SDS011;9099;47.958;11.366;2024-01-15T10:42:19;2.60;;;2.20;;
17947;SDS011;9099;47.958;11.366;2024-01-15T10:44:45;2.23;;;1.80;;
17947;SDS011;9099;47.958;11.366;2024-01-15T10:47:12;1.87;;;1.73;;
17947;SDS011;9099;47.958;11.366;2024-01-15T10:49:40;2.10;;;1.60;;
17947;SDS011;9099;47.958;11.366;2024-01-15T10:52:07;2.50;;;1.83;;
17947;SDS011;9099;47.958;11.366;2024-01-15T10:54:34;2.50;;;2.30;;
17947;SDS011;9099;47.958;11.366;2024-01-15T10:57:03;1.90;;;1.70;;
17947;SDS011;9099;47.958;11.366;2024-01-15T10:59:32;3.13;;;2.30;;
17947;SDS011;9099;47.958;11.366;2024-01-15T11:01:59;2.40;;;2.20;;
17947;SDS011;9099;47.958;11.366;2024-01-15T11:04:27;2.10;;;1.90;;
17947;SDS011;9099;47.958;11.366;2024-01-15T11:06:55;2.37;;;1.80;;
17947;SDS011;9099;47.958;11.366;2024-01-15T11:09:22;2.27;;;1.70;;
17947;SDS011;9099;47.958;11.366;2024-01-15T11:11:51;2.10;;;1.90;;
17947;SDS011;9099;47.958;11.366;2024-01-15T11:14:38;2.43;;;1.90;;
17947;SDS011;9099;47.958;11.366;2024-01-15T11:17:05;2.10;;;1.90;;
17947;SDS011;9099;47.958;11.366;2024-01-15T11:19:35;3.30;;;2.00;;
17947;SDS011;9099;47.958;11.366;2024-01-15T11:22:05;2.57;;;1.80;;
17947;SDS011;9099;47.958;11.366;2024-01-15T11:24:34;1.53;;;1.40;;
17947;SDS011;9099;47.958;11.366;2024-01-15T11:27:02;2.40;;;1.50;;
17947;SDS011;9099;47.958;11.366;2024-01-15T11:29:29;2.13;;;1.53;;
17947;SDS011;9099;47.958;11.366;2024-01-15T11:32:00;1.50;;;1.37;;
17947;SDS011;9099;47.958;11.366;2024-01-15T11:34:49;1.63;;;1.50;;
17947;SDS011;9099;47.958;11.366;2024-01-15T11:37:17;1.20;;;1.10;;
17947;SDS011;9099;47.958;11.366;2024-01-15T11:39:46;1.70;;;1.00;;
17947;SDS011;9099;47.958;11.366;2024-01-15T11:42:14;1.40;;;1.17;;
17947;SDS011;9099;47.958;11.366;2024-01-15T11:44:41;1.47;;;1.10;;
17947;SDS011;9099;47.958;11.366;2024-01-15T11:47:11;1.57;;;1.10;;
17947;SDS011;9099;47.958;11.366;2024-01-15T11:52:31;1.10;;;1.00;;
17947;SDS011;9099;47.958;11.366;2024-01-15T11:57:50;1.37;;;1.00;;
17947;SDS011;9099;47.958;11.366;2024-01-15T12:00:19;1.20;;;1.00;;
17947;SDS011;9099;47.958;11.366;2024-01-15T12:02:48;1.43;;;1.23;;
17947;SDS011;9099;47.958;11.366;2024-01-15T12:05:16;1.63;;;1.20;;
17947;SDS011;9099;47.958;11.366;2024-01-15T12:07:44;1.37;;;1.27;;
17947;SDS011;9099;47.958;11.366;2024-01-15T12:10:12;1.50;;;1.20;;
17947;SDS011;9099;47.958;11.366;2024-01-15T12:12:47;1.50;;;1.40;;
17947;SDS011;9099;47.958;11.366;2024-01-15T12:15:23;1.70;;;1.40;;
17947;SDS011;9099;47.958;11.366;2024-01-15T12:17:52;1.87;;;1.40;;
17947;SDS011;9099;47.958;11.366;2024-01-15T12:20:20;2.10;;;1.63;;
17947;SDS011;9099;47.958;11.366;2024-01-15T12:22:47;1.70;;;1.60;;
17947;SDS011;9099;47.958;11.366;2024-01-15T12:25:14;1.93;;;1.73;;
17947;SDS011;9099;47.958;11.366;2024-01-15T12:27:41;1.60;;;1.50;;
17947;SDS011;9099;47.958;11.366;2024-01-15T12:30:10;2.17;;;1.90;;
17947;SDS011;9099;47.958;11.366;2024-01-15T12:32:37;2.27;;;2.07;;
17947;SDS011;9099;47.958;11.366;2024-01-15T12:35:07;2.50;;;2.27;;
17947;SDS011;9099;47.958;11.366;2024-01-15T12:37:36;2.13;;;1.93;;
17947;SDS011;9099;47.958;11.366;2024-01-15T12:40:03;3.07;;;2.00;;
17947;SDS011;9099;47.958;11.366;2024-01-15T12:42:31;3.70;;;3.13;;
17947;SDS011;9099;47.958;11.366;2024-01-15T12:44:59;2.20;;;2.00;;
17947;SDS011;9099;47.958;11.366;2024-01-15T12:47:26;2.30;;;2.10;;
17947;SDS011;9099;47.958;11.366;2024-01-15T12:49:53;2.30;;;1.90;;
17947;SDS011;9099;47.958;11.366;2024-01-15T12:52:21;2.80;;;2.13;;
17947;SDS011;9099;47.958;11.366;2024-01-15T12:54:48;3.73;;;2.30;;
17947;SDS011;9099;47.958;11.366;2024-01-15T12:57:16;2.30;;;2.10;;
17947;SDS011;9099;47.958;11.366;2024-01-15T12:59:43;3.50;;;1.90;;
17947;SDS011;9099;47.958;11.366;2024-01-15T13:02:10;1.83;;;1.73;;
17947;SDS011;9099;47.958;11.366;2024-01-15T13:04:37;2.27;;;2.07;;
17947;SDS011;9099;47.958;11.366;2024-01-15T13:07:05;2.03;;;1.83;;
17947;SDS011;9099;47.958;11.366;2024-01-15T13:09:33;2.10;;;1.90;;
17947;SDS011;9099;47.958;11.366;2024-01-15T13:12:01;2.10;;;1.90;;
17947;SDS011;9099;47.958;11.366;2024-01-15T13:14:28;2.10;;;1.90;;
17947;SDS011;9099;47.958;11.366;2024-01-15T13:16:55;2.40;;;1.83;;
17947;SDS011;9099;47.958;11.366;2024-01-15T13:19:23;2.27;;;1.90;;
17947;SDS011;9099;47.958;11.366;2024-01-15T13:21:50;2.57;;;1.83;;
17947;SDS011;9099;47.958;11.366;2024-01-15T13:24:18;1.87;;;1.70;;
17947;SDS011;9099;47.958;11.366;2024-01-15T13:26:46;2.93;;;1.93;;
17947;SDS011;9099;47.958;11.366;2024-01-15T13:29:13;1.83;;;1.60;;
17947;SDS011;9099;47.958;11.366;2024-01-15T13:31:40;1.83;;;1.67;;
17947;SDS011;9099;47.958;11.366;2024-01-15T13:34:07;1.60;;;1.50;;
17947;SDS011;9099;47.958;11.366;2024-01-15T13:36:34;1.57;;;1.43;;
17947;SDS011;9099;47.958;11.366;2024-01-15T13:39:03;1.93;;;1.70;;
17947;SDS011;9099;47.958;11.366;2024-01-15T13:41:33;1.70;;;1.60;;
17947;SDS011;9099;47.958;11.366;2024-01-15T13:44:02;1.43;;;1.30;;
17947;SDS011;9099;47.958;11.366;2024-01-15T13:46:29;1.47;;;1.37;;
17947;SDS011;9099;47.958;11.366;2024-01-15T13:48:56;1.83;;;1.30;;
17947;SDS011;9099;47.958;11.366;2024-01-15T13:51:23;1.30;;;1.20;;
17947;SDS011;9099;47.958;11.366;2024-01-15T13:53:50;1.37;;;1.27;;
17947;SDS011;9099;47.958;11.366;2024-01-15T13:56:18;1.27;;;1.17;;
17947;SDS011;9099;47.958;11.366;2024-01-15T13:58:45;2.73;;;1.03;;
17947;SDS011;9099;47.958;11.366;2024-01-15T14:01:14;1.43;;;1.13;;
17947;SDS011;9099;47.958;11.366;2024-01-15T14:03:42;1.83;;;1.37;;
17947;SDS011;9099;47.958;11.366;2024-01-15T14:06:09;1.70;;;1.10;;
17947;SDS011;9099;47.958;11.366;2024-01-15T14:08:36;1.37;;;1.27;;
17947;SDS011;9099;47.958;11.366;2024-01-15T14:11:03;2.23;;;1.37;;
17947;SDS011;9099;47.958;11.366;2024-01-15T14:13:31;1.40;;;1.30;;
17947;SDS011;9099;47.958;11.366;2024-01-15T14:15:58;1.37;;;1.27;;
17947;SDS011;9099;47.958;11.366;2024-01-15T14:18:26;1.43;;;1.30;;
17947;SDS011;9099;47.958;11.366;2024-01-15T14:20:53;1.40;;;1.30;;
17947;SDS011;9099;47.958;11.366;2024-01-15T14:23:20;1.53;;;1.30;;
17947;SDS011;9099;47.958;11.366;2024-01-15T14:25:47;1.93;;;1.30;;
17947;SDS011;9099;47.958;11.366;2024-01-15T14:28:13;1.30;;;1.20;;
17947;SDS011;9099;47.958;11.366;2024-01-15T14:30:40;1.33;;;1.23;;
17947;SDS011;9099;47.958;11.366;2024-01-15T14:33:07;1.53;;;1.20;;
17947;SDS011;9099;47.958;11.366;2024-01-15T14:35:36;1.30;;;1.10;;
17947;SDS011;9099;47.958;11.366;2024-01-15T14:38:03;1.60;;;1.50;;
17947;SDS011;9099;47.958;11.366;2024-01-15T14:40:30;1.03;;;0.93;;
17947;SDS011;9099;47.958;11.366;2024-01-15T14:42:57;1.03;;;1.03;;
17947;SDS011;9099;47.958;11.366;2024-01-15T14:45:24;1.00;;;1.00;;
17947;SDS011;9099;47.958;11.366;2024-01-15T14:47:52;1.43;;;1.33;;
17947;SDS011;9099;47.958;11.366;2024-01-15T14:50:19;1.43;;;1.30;;
17947;SDS011;9099;47.958;11.366;2024-01-15T14:52:47;1.40;;;1.30;;
17947;SDS011;9099;47.958;11.366;2024-01-15T14:55:14;1.17;;;1.10;;